createdAt,value
2019-05-23T00:00:51.607Z,3.90
2019-05-23T00:01:51.589Z,3.70
2019-05-23T00:02:51.579Z,4.10
2019-05-23T00:03:51.602Z,4.00
2019-05-23T00:04:51.565Z,4.20
2019-05-23T00:05:51.546Z,4.00
2019-05-23T00:06:51.548Z,4.30
2019-05-23T00:07:51.529Z,4.40
2019-05-23T00:08:51.512Z,4.20
2019-05-23T00:09:51.523Z,4.40
2019-05-23T00:10:51.481Z,4.10
2019-05-23T00:11:51.479Z,4.40
2019-05-23T00:12:51.465Z,4.10
2019-05-23T00:13:51.459Z,3.70
2019-05-23T00:14:51.473Z,4.10
2019-05-23T00:15:51.445Z,4.20
2019-05-23T00:16:51.425Z,3.80
2019-05-23T00:17:51.415Z,3.80
2019-05-23T00:18:51.422Z,3.70
2019-05-23T00:19:51.421Z,4.50
2019-05-23T00:20:51.387Z,3.70
2019-05-23T00:21:51.369Z,4.00
2019-05-23T00:22:51.419Z,3.80
2019-05-23T00:23:51.351Z,3.90
2019-05-23T00:24:51.376Z,4.00
2019-05-23T00:25:51.324Z,4.00
2019-05-23T00:26:51.322Z,4.00
2019-05-23T00:27:51.331Z,4.00
2019-05-23T00:28:51.311Z,3.90
2019-05-23T00:29:51.274Z,3.60
2019-05-23T00:30:51.287Z,3.70
2019-05-23T00:31:51.262Z,4.00
2019-05-23T00:32:51.255Z,4.10
2019-05-23T00:33:51.237Z,3.90
2019-05-23T00:34:51.227Z,4.30
2019-05-23T00:35:51.269Z,3.60
2019-05-23T00:36:51.203Z,3.80
2019-05-23T00:37:51.206Z,3.80
2019-05-23T00:38:51.245Z,4.20
2019-05-23T00:39:51.217Z,4.10
2019-05-23T00:40:51.185Z,3.70
2019-05-23T00:41:51.151Z,3.60
2019-05-23T00:42:51.140Z,3.80
2019-05-23T00:43:51.205Z,3.70
2019-05-23T00:44:51.105Z,3.90
2019-05-23T00:45:51.132Z,3.80
2019-05-23T00:46:51.126Z,4.00
2019-05-23T00:47:51.086Z,3.70
2019-05-23T00:48:51.071Z,3.50
2019-05-23T00:49:51.059Z,3.80
2019-05-23T00:50:51.066Z,3.80
2019-05-23T00:51:51.039Z,3.70
2019-05-23T00:52:51.031Z,3.50
2019-05-23T00:53:51.017Z,3.90
2019-05-23T00:54:51.004Z,3.80
2019-05-23T00:55:51.008Z,3.90
2019-05-23T00:56:50.995Z,3.90
2019-05-23T00:57:50.971Z,3.80
2019-05-23T00:58:51.005Z,3.10
2019-05-23T00:59:50.955Z,3.50
2019-05-23T01:00:51.285Z,3.60
2019-05-23T01:01:50.931Z,3.60
2019-05-23T01:02:50.914Z,4.00
2019-05-23T01:03:50.903Z,3.70
2019-05-23T01:04:50.897Z,4.40
2019-05-23T01:05:50.903Z,3.90
2019-05-23T01:06:50.877Z,3.80
2019-05-23T01:07:50.863Z,3.70
2019-05-23T01:08:50.857Z,3.60
2019-05-23T01:09:50.843Z,3.50
2019-05-23T01:10:50.847Z,4.20
2019-05-23T01:11:50.818Z,3.90
2019-05-23T01:12:50.811Z,3.70
2019-05-23T01:13:50.774Z,4.00
2019-05-23T01:14:50.795Z,3.70
2019-05-23T01:15:50.760Z,4.10
2019-05-23T01:16:50.775Z,3.90
2019-05-23T01:17:50.742Z,3.60
2019-05-23T01:18:50.777Z,3.90
2019-05-23T01:19:50.721Z,3.60
2019-05-23T01:20:50.723Z,3.90
2019-05-23T01:21:50.731Z,3.80
2019-05-23T01:22:50.686Z,3.90
2019-05-23T01:23:50.679Z,4.10
2019-05-23T01:24:50.666Z,4.30
2019-05-23T01:25:50.658Z,3.70
2019-05-23T01:26:50.669Z,3.80
2019-05-23T01:27:50.661Z,3.70
2019-05-23T01:28:50.616Z,3.80
2019-05-23T01:29:50.640Z,3.70
2019-05-23T01:30:50.589Z,3.50
2019-05-23T01:31:50.616Z,3.80
2019-05-23T01:32:50.574Z,3.80
2019-05-23T01:33:50.571Z,3.80
2019-05-23T01:34:50.607Z,3.90
2019-05-23T01:35:50.594Z,3.90
2019-05-23T01:36:50.572Z,4.10
2019-05-23T01:37:50.520Z,3.80
2019-05-23T01:38:50.514Z,4.30
2019-05-23T01:39:50.525Z,3.70
2019-05-23T01:40:50.496Z,4.10
2019-05-23T01:41:50.491Z,3.80
2019-05-23T01:42:50.508Z,3.70
2019-05-23T01:43:50.445Z,4.00
2019-05-23T01:44:50.444Z,4.00
2019-05-23T01:45:50.432Z,4.10
2019-05-23T01:46:50.442Z,3.80
2019-05-23T01:47:50.448Z,3.60
2019-05-23T01:48:50.395Z,3.50
2019-05-23T01:49:50.396Z,3.80
2019-05-23T01:50:50.632Z,3.60
2019-05-23T01:51:50.368Z,3.70
2019-05-23T01:52:50.372Z,4.20
2019-05-23T01:53:50.366Z,3.30
2019-05-23T01:54:50.351Z,3.80
2019-05-23T01:55:50.324Z,3.70
2019-05-23T01:56:50.353Z,3.80
2019-05-23T01:57:50.315Z,3.60
2019-05-23T01:58:50.336Z,3.50
2019-05-23T02:00:07.850Z,3.50
2019-05-23T02:00:51.273Z,3.60
2019-05-23T02:01:50.263Z,3.60
2019-05-23T02:02:50.277Z,3.70
2019-05-23T02:03:50.239Z,3.80
2019-05-23T02:04:50.248Z,3.80
2019-05-23T02:05:50.220Z,3.80
2019-05-23T02:06:50.211Z,3.60
2019-05-23T02:07:50.192Z,3.30
2019-05-23T02:08:50.203Z,3.70
2019-05-23T02:09:50.166Z,4.00
2019-05-23T02:10:50.155Z,4.00
2019-05-23T02:11:50.140Z,3.80
2019-05-23T02:12:50.129Z,3.80
2019-05-23T02:13:50.153Z,3.70
2019-05-23T02:14:50.112Z,4.10
2019-05-23T02:15:50.117Z,3.90
2019-05-23T02:16:50.090Z,3.70
2019-05-23T02:17:50.083Z,3.50
2019-05-23T02:18:50.054Z,3.60
2019-05-23T02:19:50.074Z,3.30
2019-05-23T02:20:50.046Z,3.60
2019-05-23T02:21:50.026Z,3.80
2019-05-23T02:22:50.019Z,3.40
2019-05-23T02:23:50.014Z,3.50
2019-05-23T02:24:50.044Z,3.30
2019-05-23T02:25:49.990Z,3.30
2019-05-23T02:26:49.997Z,3.50
2019-05-23T02:27:49.966Z,3.70
2019-05-23T02:28:49.950Z,3.50
2019-05-23T02:29:49.969Z,3.70
2019-05-23T02:30:49.944Z,3.50
2019-05-23T02:31:49.928Z,3.70
2019-05-23T02:32:49.914Z,3.60
2019-05-23T02:33:49.921Z,3.40
2019-05-23T02:34:49.886Z,3.80
2019-05-23T02:35:49.907Z,3.50
2019-05-23T02:36:49.873Z,3.50
2019-05-23T02:37:49.859Z,3.50
2019-05-23T02:38:49.846Z,3.50
2019-05-23T02:39:49.836Z,3.40
2019-05-23T02:40:49.933Z,3.70
2019-05-23T02:41:49.818Z,4.10
2019-05-23T02:42:49.809Z,3.50
2019-05-23T02:43:49.792Z,3.50
2019-05-23T02:44:49.783Z,3.80
2019-05-23T02:45:49.791Z,4.20
2019-05-23T02:46:49.751Z,4.00
2019-05-23T02:47:49.762Z,3.70
2019-05-23T02:48:49.745Z,3.90
2019-05-23T02:49:49.753Z,3.70
2019-05-23T02:50:49.755Z,3.70
2019-05-23T02:51:49.710Z,3.70
2019-05-23T02:52:49.679Z,3.90
2019-05-23T02:53:49.681Z,4.10
2019-05-23T02:54:49.663Z,4.10
2019-05-23T02:55:49.656Z,3.60
2019-05-23T02:56:49.673Z,4.30
2019-05-23T02:57:49.631Z,4.00
2019-05-23T02:58:49.620Z,3.60
2019-05-23T02:59:49.613Z,4.00
2019-05-23T03:00:55.340Z,4.00
2019-05-23T03:01:50.619Z,3.70
2019-05-23T03:02:49.586Z,3.70
2019-05-23T03:03:49.569Z,4.10
2019-05-23T03:04:49.555Z,4.00
2019-05-23T03:05:49.545Z,4.20
2019-05-23T03:06:49.558Z,4.10
2019-05-23T03:07:49.534Z,3.60
2019-05-23T03:08:49.511Z,3.80
2019-05-23T03:09:49.506Z,4.00
2019-05-23T03:10:49.495Z,3.90
2019-05-23T03:11:49.512Z,3.90
2019-05-23T03:12:49.484Z,3.60
2019-05-23T03:13:49.460Z,3.50
2019-05-23T03:14:49.462Z,4.00
2019-05-23T03:15:49.431Z,3.80
2019-05-23T03:16:49.540Z,3.70
2019-05-23T03:17:49.418Z,3.80
2019-05-23T03:18:49.404Z,4.80
2019-05-23T03:19:49.398Z,4.20
2019-05-23T03:20:49.382Z,4.30
2019-05-23T03:21:49.366Z,4.20
2019-05-23T03:22:49.379Z,3.80
2019-05-23T03:23:49.430Z,3.80
2019-05-23T03:24:49.344Z,3.70
2019-05-23T03:25:49.319Z,4.30
2019-05-23T03:26:49.334Z,3.90
2019-05-23T03:27:49.318Z,4.20
2019-05-23T03:28:49.292Z,4.00
2019-05-23T03:29:49.276Z,4.10
2019-05-23T03:30:49.283Z,3.70
2019-05-23T03:31:49.266Z,3.90
2019-05-23T03:32:49.291Z,4.10
2019-05-23T03:33:49.271Z,4.00
2019-05-23T03:34:49.225Z,4.50
2019-05-23T03:35:49.273Z,4.10
2019-05-23T03:36:49.213Z,3.90
2019-05-23T03:37:49.218Z,3.80
2019-05-23T03:38:49.174Z,4.20
2019-05-23T03:39:49.163Z,4.10
2019-05-23T03:40:49.162Z,4.00
2019-05-23T03:41:49.159Z,3.90
2019-05-23T03:42:49.158Z,4.10
2019-05-23T03:43:49.130Z,4.30
2019-05-23T03:44:49.107Z,4.20
2019-05-23T03:45:49.103Z,4.20
2019-05-23T03:46:49.082Z,4.20
2019-05-23T03:47:49.165Z,4.80
2019-05-23T03:48:49.078Z,4.10
2019-05-23T03:49:49.106Z,4.50
2019-05-23T03:50:49.076Z,3.90
2019-05-23T03:51:49.038Z,4.30
2019-05-23T03:52:49.057Z,4.60
2019-05-23T03:53:49.013Z,4.00
2019-05-23T03:54:49.007Z,4.50
2019-05-23T03:55:48.991Z,4.10
2019-05-23T03:56:48.985Z,4.90
2019-05-23T03:57:48.973Z,4.40
2019-05-23T03:58:48.967Z,4.80
2019-05-23T03:59:48.950Z,4.00
2019-05-23T04:00:48.932Z,4.90
2019-05-23T04:01:49.365Z,4.60
2019-05-23T04:02:48.910Z,4.80
2019-05-23T04:03:48.912Z,4.40
2019-05-23T04:04:48.893Z,4.60
2019-05-23T04:05:48.877Z,4.70
2019-05-23T04:06:48.863Z,4.20
2019-05-23T04:07:48.859Z,4.70
2019-05-23T04:08:48.886Z,4.60
2019-05-23T04:09:48.845Z,4.40
2019-05-23T04:10:51.717Z,4.70
2019-05-23T04:11:48.812Z,4.90
2019-05-23T04:12:48.791Z,4.40
2019-05-23T04:13:48.803Z,4.80
2019-05-23T04:14:48.784Z,5.00
2019-05-23T04:15:48.773Z,5.10
2019-05-23T04:16:48.776Z,5.60
2019-05-23T04:17:48.737Z,4.70
2019-05-23T04:18:48.759Z,4.60
2019-05-23T04:19:48.727Z,5.30
2019-05-23T04:20:48.775Z,5.50
2019-05-23T04:21:48.756Z,5.10
2019-05-23T04:22:48.715Z,5.00
2019-05-23T04:23:48.711Z,5.60
2019-05-23T04:24:48.670Z,5.70
2019-05-23T04:25:48.673Z,5.30
2019-05-23T04:26:48.647Z,5.10
2019-05-23T04:27:48.637Z,5.40
2019-05-23T04:28:48.647Z,5.30
2019-05-23T04:29:48.613Z,5.60
2019-05-23T04:30:48.602Z,5.30
2019-05-23T04:32:05.900Z,5.40
2019-05-23T04:32:49.586Z,5.30
2019-05-23T04:33:48.614Z,5.40
2019-05-23T04:34:48.551Z,5.30
2019-05-23T04:35:48.557Z,6.00
2019-05-23T04:36:48.536Z,5.40
2019-05-23T04:37:48.529Z,5.20
2019-05-23T04:38:48.559Z,5.20
2019-05-23T04:39:48.501Z,5.50
2019-05-23T04:40:48.487Z,5.40
2019-05-23T04:41:48.497Z,5.60
2019-05-23T04:42:48.469Z,5.60
2019-05-23T04:43:48.485Z,6.00
2019-05-23T04:44:48.449Z,5.60
2019-05-23T04:45:48.453Z,5.20
2019-05-23T04:46:48.414Z,5.50
2019-05-23T04:47:48.417Z,5.40
2019-05-23T04:48:48.434Z,5.20
2019-05-23T04:49:48.388Z,5.70
2019-05-23T04:50:48.378Z,5.60
2019-05-23T04:51:48.368Z,5.60
2019-05-23T04:52:48.353Z,5.50
2019-05-23T04:53:48.365Z,5.40
2019-05-23T04:54:48.347Z,6.10
2019-05-23T04:55:48.380Z,5.80
2019-05-23T04:56:48.320Z,5.20
2019-05-23T04:57:48.309Z,5.80
2019-05-23T04:58:48.327Z,4.90
2019-05-23T04:59:48.273Z,5.10
2019-05-23T05:00:48.277Z,5.00
2019-05-23T05:01:48.267Z,5.50
2019-05-23T05:02:48.244Z,5.20
2019-05-23T05:03:48.268Z,6.10
2019-05-23T05:04:48.226Z,5.40
2019-05-23T05:05:48.238Z,5.80
2019-05-23T05:06:48.204Z,4.80
2019-05-23T05:07:48.190Z,5.30
2019-05-23T05:08:48.185Z,4.80
2019-05-23T05:09:48.207Z,5.10
2019-05-23T05:10:48.149Z,5.40
2019-05-23T05:11:48.157Z,5.70
2019-05-23T05:12:48.145Z,5.00
2019-05-23T05:13:48.122Z,4.80
2019-05-23T05:14:48.141Z,4.20
2019-05-23T05:15:48.102Z,4.80
2019-05-23T05:16:48.105Z,5.40
2019-05-23T05:17:48.085Z,5.00
2019-05-23T05:18:48.079Z,4.80
2019-05-23T05:19:48.093Z,4.90
2019-05-23T05:20:48.084Z,4.50
2019-05-23T05:21:48.041Z,4.50
2019-05-23T05:22:48.013Z,4.60
2019-05-23T05:23:48.010Z,4.80
2019-05-23T05:24:48.038Z,5.00
2019-05-23T05:25:47.994Z,4.30
2019-05-23T05:26:47.988Z,4.40
2019-05-23T05:27:47.986Z,4.70
2019-05-23T05:28:47.960Z,4.80
2019-05-23T05:29:47.969Z,4.60
2019-05-23T05:30:47.927Z,4.50
2019-05-23T05:31:47.923Z,4.70
2019-05-23T05:32:47.916Z,4.90
2019-05-23T05:33:47.905Z,3.90
2019-05-23T05:34:47.931Z,4.30
2019-05-23T05:35:47.877Z,4.20
2019-05-23T05:36:47.861Z,4.10
2019-05-23T05:37:47.850Z,3.90
2019-05-23T05:38:47.850Z,3.90
2019-05-23T05:39:47.837Z,3.80
2019-05-23T05:40:47.871Z,3.60
2019-05-23T05:41:47.880Z,4.10
2019-05-23T05:42:47.800Z,3.80
2019-05-23T05:43:47.788Z,4.00
2019-05-23T05:44:47.780Z,3.80
2019-05-23T05:45:47.801Z,3.70
2019-05-23T05:46:47.769Z,3.70
2019-05-23T05:47:47.758Z,3.70
2019-05-23T05:48:47.737Z,3.80
2019-05-23T05:49:47.726Z,3.80
2019-05-23T05:50:47.747Z,3.50
2019-05-23T05:51:47.703Z,3.90
2019-05-23T05:52:47.703Z,3.80
2019-05-23T05:53:47.706Z,3.60
2019-05-23T05:54:47.664Z,3.60
2019-05-23T05:55:47.682Z,3.60
2019-05-23T05:56:47.645Z,3.40
2019-05-23T05:57:47.650Z,3.80
2019-05-23T05:58:47.632Z,3.30
2019-05-23T05:59:47.604Z,3.40
2019-05-23T06:00:47.635Z,3.30
2019-05-23T06:01:47.596Z,3.50
2019-05-23T06:03:02.638Z,3.80
2019-05-23T06:03:48.566Z,3.40
2019-05-23T06:04:47.556Z,3.30
2019-05-23T06:05:47.586Z,4.10
2019-05-23T06:06:50.099Z,3.40
2019-05-23T06:07:47.533Z,3.60
2019-05-23T06:08:47.515Z,3.40
2019-05-23T06:09:47.497Z,3.50
2019-05-23T06:10:47.521Z,3.30
2019-05-23T06:11:47.475Z,3.20
2019-05-23T06:12:47.465Z,3.10
2019-05-23T06:13:47.454Z,3.40
2019-05-23T06:14:47.449Z,3.50
2019-05-23T06:15:47.456Z,3.50
2019-05-23T06:16:47.426Z,3.20
2019-05-23T06:17:47.411Z,3.10
2019-05-23T06:18:47.402Z,3.60
2019-05-23T06:19:47.457Z,3.70
2019-05-23T06:20:47.407Z,3.20
2019-05-23T06:21:47.370Z,3.10
2019-05-23T06:22:47.353Z,3.30
2019-05-23T06:23:47.346Z,3.60
2019-05-23T06:24:52.268Z,3.60
2019-05-23T06:25:48.346Z,3.70
2019-05-23T06:26:47.311Z,3.60
2019-05-23T06:27:47.293Z,3.30
2019-05-23T06:28:47.301Z,3.40
2019-05-23T06:29:47.268Z,3.30
2019-05-23T06:30:47.282Z,3.70
2019-05-23T06:31:47.256Z,3.40
2019-05-23T06:32:47.259Z,3.40
2019-05-23T06:33:47.224Z,2.90
2019-05-23T06:34:47.224Z,3.00
2019-05-23T06:35:47.238Z,3.40
2019-05-23T06:36:47.192Z,3.60
2019-05-23T06:37:47.188Z,3.30
2019-05-23T06:38:47.174Z,3.10
2019-05-23T06:39:47.199Z,2.70
2019-05-23T06:40:47.180Z,3.10
2019-05-23T06:41:47.167Z,2.80
2019-05-23T06:42:50.537Z,3.10
2019-05-23T06:43:47.135Z,3.10
2019-05-23T06:44:47.108Z,2.40
2019-05-23T06:45:47.094Z,2.50
2019-05-23T06:46:47.173Z,2.90
2019-05-23T06:47:47.094Z,2.60
2019-05-23T06:48:47.073Z,2.70
2019-05-23T06:49:47.069Z,2.80
2019-05-23T06:50:47.050Z,3.10
2019-05-23T06:51:47.057Z,2.70
2019-05-23T06:52:47.026Z,2.80
2019-05-23T06:53:47.017Z,3.00
2019-05-23T06:54:46.999Z,2.90
2019-05-23T06:55:46.993Z,3.00
2019-05-23T06:56:47.013Z,3.40
2019-05-23T06:57:46.990Z,3.40
2019-05-23T06:58:46.980Z,3.00
2019-05-23T06:59:46.957Z,2.80
2019-05-23T07:00:46.994Z,3.40
2019-05-23T07:01:46.935Z,3.20
2019-05-23T07:02:46.944Z,3.30
2019-05-23T07:03:46.902Z,3.00
2019-05-23T07:04:46.878Z,3.10
2019-05-23T07:05:46.873Z,3.00
2019-05-23T07:06:46.893Z,3.30
2019-05-23T07:07:46.845Z,3.10
2019-05-23T07:08:46.839Z,3.10
2019-05-23T07:09:46.837Z,3.40
2019-05-23T07:10:46.844Z,2.80
2019-05-23T07:11:46.859Z,3.30
2019-05-23T07:12:46.803Z,3.10
2019-05-23T07:13:46.826Z,3.10
2019-05-23T07:14:46.891Z,2.80
2019-05-23T07:15:46.822Z,3.00
2019-05-23T07:16:50.170Z,3.30
2019-05-23T07:17:46.771Z,2.90
2019-05-23T07:18:46.723Z,3.10
2019-05-23T07:19:46.766Z,2.70
2019-05-23T07:20:46.728Z,2.80
2019-05-23T07:21:46.692Z,3.10
2019-05-23T07:22:46.933Z,2.80
2019-05-23T07:23:46.683Z,2.30
2019-05-23T07:24:57.664Z,2.60
2019-05-23T07:25:47.655Z,2.60
2019-05-23T07:26:46.648Z,2.20
2019-05-23T07:27:46.656Z,2.60
2019-05-23T07:28:46.620Z,2.60
2019-05-23T07:29:46.633Z,2.70
2019-05-23T07:30:46.658Z,2.70
2019-05-23T07:31:46.635Z,2.80
2019-05-23T07:32:46.610Z,2.60
2019-05-23T07:34:01.119Z,2.60
2019-05-23T07:34:47.551Z,2.40
2019-05-23T07:35:46.550Z,2.20
2019-05-23T07:36:46.532Z,2.40
2019-05-23T07:37:46.544Z,2.10
2019-05-23T07:38:46.536Z,2.50
2019-05-23T07:39:46.508Z,2.00
2019-05-23T07:40:46.526Z,2.30
2019-05-23T07:41:46.478Z,2.10
2019-05-23T07:42:46.484Z,2.30
2019-05-23T07:43:46.476Z,2.30
2019-05-23T07:44:48.581Z,2.40
2019-05-23T07:45:46.433Z,2.50
2019-05-23T07:46:46.433Z,2.50
2019-05-23T07:47:46.464Z,2.40
2019-05-23T07:48:46.409Z,2.30
2019-05-23T07:49:46.382Z,2.50
2019-05-23T07:50:46.383Z,2.10
2019-05-23T07:51:46.392Z,2.80
2019-05-23T07:52:46.387Z,2.40
2019-05-23T07:53:46.363Z,2.60
2019-05-23T07:54:46.337Z,2.30
2019-05-23T07:55:46.338Z,2.10
2019-05-23T07:56:46.307Z,2.10
2019-05-23T07:57:46.313Z,2.20
2019-05-23T07:58:46.285Z,1.60
2019-05-23T07:59:46.275Z,1.70
2019-05-23T08:00:46.281Z,2.20
2019-05-23T08:01:46.272Z,2.60
2019-05-23T08:02:46.282Z,2.20
2019-05-23T08:03:46.228Z,2.40
2019-05-23T08:04:46.226Z,3.20
2019-05-23T08:05:46.219Z,2.60
2019-05-23T08:06:48.822Z,2.60
2019-05-23T08:07:46.275Z,2.70
2019-05-23T08:08:46.211Z,3.20
2019-05-23T08:09:46.187Z,2.90
2019-05-23T08:10:46.152Z,2.60
2019-05-23T08:11:46.153Z,2.30
2019-05-23T08:12:46.158Z,2.50
2019-05-23T08:13:46.124Z,2.20
2019-05-23T08:14:46.130Z,2.40
2019-05-23T08:15:46.135Z,2.50
2019-05-23T08:16:46.096Z,2.10
2019-05-23T08:17:46.110Z,2.40
2019-05-23T08:18:46.078Z,2.20
2019-05-23T08:19:49.861Z,1.90
2019-05-23T08:20:46.043Z,2.10
2019-05-23T08:21:46.045Z,2.30
2019-05-23T08:22:46.056Z,2.10
2019-05-23T08:23:46.004Z,2.50
2019-05-23T08:24:45.999Z,2.00
2019-05-23T08:25:45.995Z,2.50
2019-05-23T08:26:45.976Z,2.20
2019-05-23T08:27:46.042Z,2.30
2019-05-23T08:29:11.242Z,2.30
2019-05-23T08:29:46.938Z,2.10
2019-05-23T08:30:45.928Z,1.80
2019-05-23T08:31:45.923Z,2.20
2019-05-23T08:32:45.928Z,2.20
2019-05-23T08:33:45.902Z,2.20
2019-05-23T08:34:45.894Z,2.30
2019-05-23T08:35:45.879Z,2.30
2019-05-23T08:36:45.857Z,2.10
2019-05-23T08:37:45.864Z,2.10
2019-05-23T08:38:45.851Z,2.30
2019-05-23T08:39:45.836Z,2.30
2019-05-23T08:40:45.818Z,2.00
2019-05-23T08:41:45.842Z,2.10
2019-05-23T08:42:45.810Z,2.20
2019-05-23T08:43:45.801Z,3.00
2019-05-23T08:44:45.774Z,3.10
2019-05-23T08:45:45.765Z,2.50
2019-05-23T08:46:45.763Z,2.30
2019-05-23T08:47:45.761Z,2.50
2019-05-23T08:48:45.724Z,2.30
2019-05-23T08:49:45.744Z,2.60
2019-05-23T08:50:45.702Z,2.30
2019-05-23T08:51:45.698Z,2.20
2019-05-23T08:52:45.698Z,2.30
2019-05-23T08:53:45.667Z,2.10
2019-05-23T08:54:45.678Z,2.40
2019-05-23T08:55:45.660Z,2.20
2019-05-23T08:56:45.651Z,2.30
2019-05-23T08:57:45.652Z,2.50
2019-05-23T08:58:45.621Z,2.10
2019-05-23T08:59:45.608Z,2.20
2019-05-23T09:00:45.603Z,2.00
2019-05-23T09:01:45.593Z,2.40
2019-05-23T09:02:45.597Z,2.20
2019-05-23T09:03:45.571Z,2.60
2019-05-23T09:05:02.490Z,2.90
2019-05-23T09:05:46.578Z,2.80
2019-05-23T09:06:45.565Z,2.60
2019-05-23T09:07:45.539Z,2.70
2019-05-23T09:08:45.531Z,2.70
2019-05-23T09:09:45.492Z,2.50
2019-05-23T09:10:45.494Z,2.60
2019-05-23T09:11:45.470Z,2.70
2019-05-23T09:12:45.482Z,2.60
2019-05-23T09:13:45.437Z,2.40
2019-05-23T09:14:45.437Z,2.50
2019-05-23T09:15:45.447Z,2.30
2019-05-23T09:16:45.408Z,2.30
2019-05-23T09:17:52.840Z,2.10
2019-05-23T09:18:46.396Z,2.20
2019-05-23T09:19:45.391Z,2.10
2019-05-23T09:20:45.358Z,1.90
2019-05-23T09:21:45.377Z,1.90
2019-05-23T09:22:45.375Z,2.00
2019-05-23T09:23:45.348Z,2.30
2019-05-23T09:24:45.353Z,2.10
2019-05-23T09:25:45.421Z,2.30
2019-05-23T09:26:45.305Z,2.40
2019-05-23T09:27:45.392Z,2.20
2019-05-23T09:28:45.292Z,2.30
2019-05-23T09:29:45.289Z,2.20
2019-05-23T09:30:45.262Z,2.00
2019-05-23T09:31:45.247Z,2.00
2019-05-23T09:32:45.436Z,1.80
2019-05-23T09:33:45.226Z,2.30
2019-05-23T09:34:45.221Z,2.10
2019-05-23T09:35:45.310Z,2.20
2019-05-23T09:36:45.192Z,2.20
2019-05-23T09:37:45.301Z,2.10
2019-05-23T09:38:45.418Z,2.20
2019-05-23T09:39:45.163Z,2.00
2019-05-23T09:40:45.159Z,2.20
2019-05-23T09:41:45.137Z,2.20
2019-05-23T09:42:45.149Z,2.20
2019-05-23T09:43:45.113Z,2.20
2019-05-23T09:44:45.116Z,2.20
2019-05-23T09:45:45.106Z,2.20
2019-05-23T09:46:45.098Z,2.10
2019-05-23T09:47:45.112Z,2.00
2019-05-23T09:48:45.061Z,2.20
2019-05-23T09:49:53.923Z,2.00
2019-05-23T09:50:46.037Z,2.30
2019-05-23T09:51:45.961Z,2.00
2019-05-23T09:52:45.041Z,1.90
2019-05-23T09:53:47.544Z,2.30
2019-05-23T09:54:44.995Z,2.30
2019-05-23T09:55:44.990Z,2.80
2019-05-23T09:56:44.983Z,5.00
2019-05-23T09:57:45.002Z,2.70
2019-05-23T09:58:44.954Z,2.20
2019-05-23T09:59:44.981Z,2.20
2019-05-23T10:00:44.936Z,2.00
2019-05-23T10:01:44.930Z,1.60
2019-05-23T10:02:44.934Z,2.00
2019-05-23T10:03:44.896Z,2.00
2019-05-23T10:04:44.884Z,2.00
2019-05-23T10:05:44.908Z,2.00
2019-05-23T10:06:46.219Z,1.90
2019-05-23T10:07:44.895Z,1.90
2019-05-23T10:08:44.838Z,1.60
2019-05-23T10:09:44.890Z,1.40
2019-05-23T10:10:44.851Z,1.20
2019-05-23T10:11:44.814Z,1.40
2019-05-23T10:12:44.817Z,1.30
2019-05-23T10:13:44.788Z,1.70
2019-05-23T10:14:44.766Z,1.70
2019-05-23T10:15:44.846Z,1.50
2019-05-23T10:16:44.742Z,1.50
2019-05-23T10:17:44.773Z,1.30
2019-05-23T10:18:44.727Z,1.40
2019-05-23T10:19:44.715Z,1.20
2019-05-23T10:20:44.707Z,1.60
2019-05-23T10:21:44.688Z,1.70
2019-05-23T10:22:44.713Z,2.00
2019-05-23T10:23:44.675Z,1.80
2019-05-23T10:24:44.661Z,1.60
2019-05-23T10:25:44.664Z,1.70
2019-05-23T10:26:44.644Z,1.80
2019-05-23T10:27:44.652Z,1.70
2019-05-23T10:28:44.618Z,1.60
2019-05-23T10:29:44.622Z,2.10
2019-05-23T10:30:44.600Z,1.80
2019-05-23T10:31:44.606Z,1.90
2019-05-23T10:32:44.596Z,1.70
2019-05-23T10:33:44.570Z,1.90
2019-05-23T10:34:44.566Z,2.00
2019-05-23T10:35:59.138Z,1.60
2019-05-23T10:36:45.543Z,1.60
2019-05-23T10:37:44.554Z,1.60
2019-05-23T10:38:44.504Z,1.70
2019-05-23T10:39:44.494Z,1.50
2019-05-23T10:40:44.492Z,1.50
2019-05-23T10:41:44.479Z,1.60
2019-05-23T10:42:44.486Z,1.90
2019-05-23T10:43:44.447Z,2.00
2019-05-23T10:44:45.092Z,1.60
2019-05-23T10:45:44.420Z,1.80
2019-05-23T10:46:44.420Z,1.80
2019-05-23T10:47:44.436Z,2.00
2019-05-23T10:48:44.394Z,1.90
2019-05-23T10:49:44.382Z,1.70
2019-05-23T10:50:45.484Z,1.70
2019-05-23T10:51:44.367Z,2.20
2019-05-23T10:52:44.384Z,1.80
2019-05-23T10:53:44.333Z,1.90
2019-05-23T10:54:44.337Z,1.80
2019-05-23T10:55:44.318Z,2.10
2019-05-23T10:56:44.313Z,2.00
2019-05-23T10:57:44.329Z,1.80
2019-05-23T10:58:44.303Z,2.20
2019-05-23T10:59:44.277Z,2.30
2019-05-23T11:00:44.259Z,2.00
2019-05-23T11:01:44.261Z,2.90
2019-05-23T11:02:44.338Z,2.40
2019-05-23T11:03:44.226Z,2.20
2019-05-23T11:04:44.215Z,1.80
2019-05-23T11:05:44.218Z,1.80
2019-05-23T11:06:44.198Z,2.10
2019-05-23T11:07:44.218Z,2.30
2019-05-23T11:08:44.201Z,2.10
2019-05-23T11:09:44.165Z,1.90
2019-05-23T11:10:44.435Z,1.80
2019-05-23T11:11:44.167Z,2.00
2019-05-23T11:12:44.150Z,2.30
2019-05-23T11:13:44.345Z,1.80
2019-05-23T11:14:44.140Z,2.30
2019-05-23T11:15:44.106Z,2.00
2019-05-23T11:16:44.134Z,1.80
2019-05-23T11:17:44.121Z,2.10
2019-05-23T11:18:44.161Z,1.90
2019-05-23T11:19:44.066Z,2.20
2019-05-23T11:20:44.025Z,2.00
2019-05-23T11:21:44.039Z,2.10
2019-05-23T11:22:44.068Z,2.30
2019-05-23T11:23:44.004Z,2.00
2019-05-23T11:24:44.058Z,2.10
2019-05-23T11:25:44.046Z,2.20
2019-05-23T11:26:43.972Z,2.30
2019-05-23T11:27:44.011Z,2.30
2019-05-23T11:28:43.952Z,2.50
2019-05-23T11:29:43.952Z,2.50
2019-05-23T11:30:43.950Z,2.20
2019-05-23T11:31:43.912Z,2.10
2019-05-23T11:32:43.922Z,2.10
2019-05-23T11:33:43.890Z,2.20
2019-05-23T11:34:43.918Z,2.50
2019-05-23T11:35:43.890Z,2.30
2019-05-23T11:36:43.866Z,2.20
2019-05-23T11:37:43.895Z,2.10
2019-05-23T11:38:43.840Z,2.10
2019-05-23T11:39:49.716Z,2.20
2019-05-23T11:40:44.813Z,2.10
2019-05-23T11:41:43.841Z,1.90
2019-05-23T11:42:43.808Z,2.50
2019-05-23T11:43:43.776Z,2.40
2019-05-23T11:44:43.802Z,2.40
2019-05-23T11:45:46.032Z,2.10
2019-05-23T11:46:43.766Z,2.20
2019-05-23T11:47:43.774Z,2.40
2019-05-23T11:48:43.758Z,1.90
2019-05-23T11:49:44.905Z,2.50
2019-05-23T11:50:43.758Z,2.50
2019-05-23T11:51:43.708Z,2.50
2019-05-23T11:52:43.725Z,2.50
2019-05-23T11:53:47.025Z,2.50
2019-05-23T11:54:44.663Z,2.70
2019-05-23T11:55:43.688Z,2.50
2019-05-23T11:56:43.684Z,2.20
2019-05-23T11:57:43.694Z,2.70
2019-05-23T11:58:43.780Z,2.10
2019-05-23T11:59:43.607Z,2.60
2019-05-23T12:00:43.612Z,2.40
2019-05-23T12:01:43.591Z,2.40
2019-05-23T12:02:43.634Z,2.40
2019-05-23T12:03:43.699Z,2.60
2019-05-23T12:04:43.664Z,2.60
2019-05-23T12:05:43.566Z,2.50
2019-05-23T12:06:54.553Z,2.40
2019-05-23T12:07:44.540Z,3.00
2019-05-23T12:08:43.511Z,2.60
2019-05-23T12:09:43.495Z,2.60
2019-05-23T12:10:43.486Z,2.50
2019-05-23T12:11:43.632Z,2.40
2019-05-23T12:12:43.492Z,2.30
2019-05-23T12:13:43.469Z,2.30
2019-05-23T12:14:43.460Z,2.90
2019-05-23T12:15:43.442Z,3.30
2019-05-23T12:16:43.464Z,3.00
2019-05-23T12:17:43.425Z,4.20
2019-05-23T12:18:43.389Z,2.60
2019-05-23T12:19:43.461Z,2.20
2019-05-23T12:20:43.370Z,2.30
2019-05-23T12:21:43.470Z,3.20
2019-05-23T12:22:43.466Z,3.40
2019-05-23T12:23:43.353Z,2.40
2019-05-23T12:24:43.367Z,2.30
2019-05-23T12:25:43.393Z,2.50
2019-05-23T12:26:43.319Z,2.90
2019-05-23T12:27:43.365Z,2.50
2019-05-23T12:28:43.340Z,3.00
2019-05-23T12:29:43.274Z,2.80
2019-05-23T12:30:43.273Z,2.90
2019-05-23T12:31:43.250Z,2.30
2019-05-23T12:32:43.314Z,2.40
2019-05-23T12:33:43.237Z,2.80
2019-05-23T12:34:43.261Z,2.60
2019-05-23T12:35:43.210Z,2.50
2019-05-23T12:36:43.207Z,2.50
2019-05-23T12:37:43.225Z,2.30
2019-05-23T12:38:43.181Z,2.70
2019-05-23T12:39:43.164Z,2.30
2019-05-23T12:40:43.151Z,2.50
2019-05-23T12:41:43.142Z,2.30
2019-05-23T12:42:43.167Z,2.50
2019-05-23T12:43:43.119Z,2.40
2019-05-23T12:44:43.103Z,2.30
2019-05-23T12:45:43.107Z,2.30
2019-05-23T12:46:43.082Z,2.10
2019-05-23T12:47:43.137Z,2.60
2019-05-23T12:48:43.087Z,2.10
2019-05-23T12:49:43.053Z,2.40
2019-05-23T12:50:43.053Z,2.40
2019-05-23T12:51:43.024Z,2.30
2019-05-23T12:52:43.055Z,2.30
2019-05-23T12:53:43.003Z,2.20
2019-05-23T12:54:43.015Z,1.80
2019-05-23T12:55:42.977Z,1.70
2019-05-23T12:56:42.973Z,1.80
2019-05-23T12:57:42.978Z,1.70
2019-05-23T12:58:42.979Z,1.80
2019-05-23T12:59:42.935Z,1.50
2019-05-23T13:00:42.934Z,1.70
2019-05-23T13:01:42.918Z,1.50
2019-05-23T13:02:42.922Z,1.40
2019-05-23T13:03:42.896Z,1.50
2019-05-23T13:04:43.020Z,1.50
2019-05-23T13:05:42.888Z,1.60
2019-05-23T13:06:42.860Z,1.40
2019-05-23T13:07:42.885Z,1.50
2019-05-23T13:08:43.010Z,1.40
2019-05-23T13:09:42.842Z,1.60
2019-05-23T13:10:42.812Z,1.40
2019-05-23T13:11:42.808Z,1.40
2019-05-23T13:12:42.836Z,1.30
2019-05-23T13:13:42.790Z,1.50
2019-05-23T13:14:42.776Z,1.60
2019-05-23T13:15:42.787Z,1.40
2019-05-23T13:16:42.753Z,1.60
2019-05-23T13:17:42.763Z,1.40
2019-05-23T13:18:42.746Z,1.50